メインページ
METAR-TAF:

METAR-TAF

空港 :

ゲシュム島, イラン

緯度: 26-45-18N, 経度: 055-54-08E, 海抜: 12m

現時点の気象観測

当レポートは45分前の20:00(UTC)に作成
無風
気温 31°C
湿度 75%
気圧 994 hPa
視程: 4000m
煙霧

METAR: OIKQ 212000Z 00000KT 4000 HZ NSC 31/26 Q0994

時間: 01:15 (20:45 UTC)


TAF: 見つかりません

4,000以上の空港の気象観測と天気予報(METAR報とTAF報)

利用可能な観測所は地図上に黄色い丸と赤い丸で示す。

丸の上にカーソルを重ねると観測所名を参照できる。

次にクリックすると気象観測と天気予報を参照できる。

マップの切り替え:黒色「×」印の緑ボタンをクリックして拡大、「-」印の緑ボタンをクリックして縮小、緑色の三角印をクリックして隣りの地図に切り替え


METAR-TAF: